sensor_id;sensor_type;location;lat;lon;timestamp;pressure;altitude;pressure_sealevel;temperature;humidity
11830;BME280;5972;42.134;24.718;2023-02-23T00:01:14;99592.44;;;8.91;100.00
11830;BME280;5972;42.134;24.718;2023-02-23T00:03:41;99592.44;;;8.91;100.00
11830;BME280;5972;42.134;24.718;2023-02-23T00:06:09;99603.34;;;8.95;100.00
11830;BME280;5972;42.134;24.718;2023-02-23T00:08:37;99590.84;;;8.90;100.00
11830;BME280;5972;42.134;24.718;2023-02-23T00:11:06;99591.28;;;8.92;100.00
11830;BME280;5972;42.134;24.718;2023-02-23T00:13:35;99591.22;;;9.01;100.00
11830;BME280;5972;42.134;24.718;2023-02-23T00:16:06;99592.47;;;9.03;100.00
11830;BME280;5972;42.134;24.718;2023-02-23T00:18:34;99580.22;;;9.06;100.00
11830;BME280;5972;42.134;24.718;2023-02-23T00:21:13;99594.50;;;9.06;100.00
11830;BME280;5972;42.134;24.718;2023-02-23T00:23:41;99585.03;;;9.00;100.00
11830;BME280;5972;42.134;24.718;2023-02-23T00:26:09;99591.03;;;9.06;100.00
11830;BME280;5972;42.134;24.718;2023-02-23T00:28:40;99582.47;;;9.04;100.00
11830;BME280;5972;42.134;24.718;2023-02-23T00:31:08;99591.34;;;9.04;100.00
11830;BME280;5972;42.134;24.718;2023-02-23T00:33:35;99591.81;;;9.06;100.00
11830;BME280;5972;42.134;24.718;2023-02-23T00:36:04;99593.06;;;9.09;100.00
11830;BME280;5972;42.134;24.718;2023-02-23T00:38:31;99594.50;;;9.06;100.00
11830;BME280;5972;42.134;24.718;2023-02-23T00:41:03;99601.03;;;9.05;100.00
11830;BME280;5972;42.134;24.718;2023-02-23T00:43:32;99596.53;;;9.09;100.00
11830;BME280;5972;42.134;24.718;2023-02-23T00:46:01;99590.69;;;9.07;100.00
11830;BME280;5972;42.134;24.718;2023-02-23T00:48:31;99593.16;;;9.00;100.00
11830;BME280;5972;42.134;24.718;2023-02-23T00:50:59;99592.25;;;9.08;100.00
11830;BME280;5972;42.134;24.718;2023-02-23T00:53:27;99597.22;;;9.06;100.00
11830;BME280;5972;42.134;24.718;2023-02-23T00:55:54;99596.16;;;8.99;100.00
11830;BME280;5972;42.134;24.718;2023-02-23T00:58:22;99596.31;;;9.02;100.00
11830;BME280;5972;42.134;24.718;2023-02-23T01:00:48;99590.75;;;8.99;100.00
11830;BME280;5972;42.134;24.718;2023-02-23T01:03:17;99587.75;;;9.00;100.00
11830;BME280;5972;42.134;24.718;2023-02-23T01:05:44;99591.88;;;8.98;100.00
11830;BME280;5972;42.134;24.718;2023-02-23T01:08:14;99602.03;;;9.01;100.00
11830;BME280;5972;42.134;24.718;2023-02-23T01:10:42;99597.88;;;9.03;100.00
11830;BME280;5972;42.134;24.718;2023-02-23T01:13:12;99577.69;;;8.89;100.00
11830;BME280;5972;42.134;24.718;2023-02-23T01:15:42;99599.13;;;9.06;100.00
11830;BME280;5972;42.134;24.718;2023-02-23T01:18:10;99585.50;;;9.02;100.00
11830;BME280;5972;42.134;24.718;2023-02-23T01:20:41;99595.38;;;8.98;100.00
11830;BME280;5972;42.134;24.718;2023-02-23T01:23:09;99600.56;;;9.03;100.00
11830;BME280;5972;42.134;24.718;2023-02-23T01:25:38;99599.34;;;9.01;100.00
11830;BME280;5972;42.134;24.718;2023-02-23T01:28:05;99594.50;;;9.06;100.00
11830;BME280;5972;42.134;24.718;2023-02-23T01:30:33;99592.03;;;9.01;100.00
11830;BME280;5972;42.134;24.718;2023-02-23T01:33:01;99592.34;;;9.00;100.00
11830;BME280;5972;42.134;24.718;2023-02-23T01:35:28;99596.25;;;8.90;100.00
11830;BME280;5972;42.134;24.718;2023-02-23T01:37:56;99589.41;;;8.72;100.00
11830;BME280;5972;42.134;24.718;2023-02-23T01:40:24;99583.94;;;8.60;100.00
11830;BME280;5972;42.134;24.718;2023-02-23T01:42:55;99606.84;;;8.74;100.00
11830;BME280;5972;42.134;24.718;2023-02-23T01:45:32;99605.28;;;8.73;100.00
11830;BME280;5972;42.134;24.718;2023-02-23T01:48:04;99610.19;;;8.71;100.00
11830;BME280;5972;42.134;24.718;2023-02-23T01:50:48;99607.91;;;8.61;100.00
11830;BME280;5972;42.134;24.718;2023-02-23T01:53:21;99604.53;;;8.64;100.00
11830;BME280;5972;42.134;24.718;2023-02-23T01:55:50;99609.28;;;8.67;100.00
11830;BME280;5972;42.134;24.718;2023-02-23T01:58:21;99606.19;;;8.57;100.00
11830;BME280;5972;42.134;24.718;2023-02-23T02:00:51;99606.81;;;8.54;100.00
11830;BME280;5972;42.134;24.718;2023-02-23T02:03:24;99616.78;;;8.62;100.00
11830;BME280;5972;42.134;24.718;2023-02-23T02:05:53;99620.81;;;8.47;100.00
11830;BME280;5972;42.134;24.718;2023-02-23T02:08:22;99592.06;;;8.30;100.00
11830;BME280;5972;42.134;24.718;2023-02-23T02:10:51;99612.28;;;8.45;100.00
11830;BME280;5972;42.134;24.718;2023-02-23T02:13:23;99605.53;;;8.30;100.00
11830;BME280;5972;42.134;24.718;2023-02-23T02:16:11;99612.78;;;8.39;100.00
11830;BME280;5972;42.134;24.718;2023-02-23T02:18:51;99617.13;;;8.31;100.00
11830;BME280;5972;42.134;24.718;2023-02-23T02:28:16;99611.03;;;8.05;100.00
11830;BME280;5972;42.134;24.718;2023-02-23T02:31:03;99613.88;;;8.08;100.00
11830;BME280;5972;42.134;24.718;2023-02-23T02:34:06;99623.09;;;8.07;100.00
11830;BME280;5972;42.134;24.718;2023-02-23T02:36:56;99612.28;;;7.78;100.00
11830;BME280;5972;42.134;24.718;2023-02-23T02:39:32;99629.53;;;7.77;100.00
11830;BME280;5972;42.134;24.718;2023-02-23T02:42:09;99626.88;;;7.68;100.00
11830;BME280;5972;42.134;24.718;2023-02-23T02:44:51;99623.44;;;7.42;100.00
11830;BME280;5972;42.134;24.718;2023-02-23T02:47:25;99627.09;;;7.37;100.00
11830;BME280;5972;42.134;24.718;2023-02-23T02:50:01;99625.19;;;7.38;100.00
11830;BME280;5972;42.134;24.718;2023-02-23T02:52:34;99625.97;;;7.47;100.00
11830;BME280;5972;42.134;24.718;2023-02-23T02:55:08;99628.13;;;7.71;100.00
11830;BME280;5972;42.134;24.718;2023-02-23T02:57:39;99637.75;;;7.80;100.00
11830;BME280;5972;42.134;24.718;2023-02-23T03:00:10;99631.00;;;7.74;100.00
11830;BME280;5972;42.134;24.718;2023-02-23T03:02:55;99632.72;;;7.70;100.00
11830;BME280;5972;42.134;24.718;2023-02-23T03:05:42;99629.59;;;7.60;100.00
11830;BME280;5972;42.134;24.718;2023-02-23T03:08:37;99632.16;;;7.47;100.00
11830;BME280;5972;42.134;24.718;2023-02-23T03:11:24;99632.69;;;6.98;100.00
11830;BME280;5972;42.134;24.718;2023-02-23T03:14:22;99638.53;;;7.17;100.00
11830;BME280;5972;42.134;24.718;2023-02-23T03:17:19;99641.22;;;7.34;100.00
11830;BME280;5972;42.134;24.718;2023-02-23T03:20:19;99640.75;;;7.24;100.00
11830;BME280;5972;42.134;24.718;2023-02-23T03:23:08;99644.53;;;7.40;100.00
11830;BME280;5972;42.134;24.718;2023-02-23T03:26:01;99647.19;;;7.57;100.00
11830;BME280;5972;42.134;24.718;2023-02-23T03:28:56;99643.84;;;7.69;100.00
11830;BME280;5972;42.134;24.718;2023-02-23T03:31:47;99648.78;;;7.49;100.00
11830;BME280;5972;42.134;24.718;2023-02-23T03:34:38;99652.25;;;7.50;100.00
11830;BME280;5972;42.134;24.718;2023-02-23T03:37:26;99657.63;;;7.59;100.00
11830;BME280;5972;42.134;24.718;2023-02-23T03:40:14;99653.78;;;7.77;100.00
11830;BME280;5972;42.134;24.718;2023-02-23T03:43:03;99654.00;;;7.55;100.00
11830;BME280;5972;42.134;24.718;2023-02-23T03:45:50;99651.50;;;7.32;100.00
11830;BME280;5972;42.134;24.718;2023-02-23T03:48:36;99651.94;;;7.43;100.00
11830;BME280;5972;42.134;24.718;2023-02-23T03:51:21;99642.63;;;7.32;100.00
11830;BME280;5972;42.134;24.718;2023-02-23T03:54:11;99648.47;;;7.51;100.00
11830;BME280;5972;42.134;24.718;2023-02-23T03:56:58;99652.88;;;7.47;100.00
11830;BME280;5972;42.134;24.718;2023-02-23T03:59:49;99652.75;;;7.52;100.00
11830;BME280;5972;42.134;24.718;2023-02-23T04:02:35;99647.03;;;7.53;100.00
11830;BME280;5972;42.134;24.718;2023-02-23T04:05:21;99655.28;;;7.57;100.00
11830;BME280;5972;42.134;24.718;2023-02-23T04:08:08;99664.75;;;7.63;100.00
11830;BME280;5972;42.134;24.718;2023-02-23T04:10:59;99661.75;;;7.56;100.00
11830;BME280;5972;42.134;24.718;2023-02-23T04:13:47;99651.47;;;7.49;100.00
11830;BME280;5972;42.134;24.718;2023-02-23T04:16:16;99659.25;;;7.51;100.00
11830;BME280;5972;42.134;24.718;2023-02-23T04:18:41;99642.28;;;7.50;100.00
11830;BME280;5972;42.134;24.718;2023-02-23T04:21:08;99648.78;;;7.49;100.00
11830;BME280;5972;42.134;24.718;2023-02-23T04:23:36;99658.59;;;7.54;100.00
11830;BME280;5972;42.134;24.718;2023-02-23T04:26:05;99663.81;;;7.50;100.00
11830;BME280;5972;42.134;24.718;2023-02-23T04:28:31;99659.88;;;7.39;100.00
11830;BME280;5972;42.134;24.718;2023-02-23T04:30:58;99662.56;;;7.48;100.00
11830;BME280;5972;42.134;24.718;2023-02-23T04:33:27;99665.59;;;7.38;100.00
11830;BME280;5972;42.134;24.718;2023-02-23T04:35:54;99663.03;;;7.41;100.00
11830;BME280;5972;42.134;24.718;2023-02-23T04:38:22;99665.91;;;7.28;100.00
11830;BME280;5972;42.134;24.718;2023-02-23T04:40:49;99649.75;;;7.28;100.00
11830;BME280;5972;42.134;24.718;2023-02-23T04:43:16;99654.84;;;7.29;100.00
11830;BME280;5972;42.134;24.718;2023-02-23T04:45:43;99665.13;;;7.27;100.00
11830;BME280;5972;42.134;24.718;2023-02-23T04:48:10;99666.06;;;7.31;100.00
11830;BME280;5972;42.134;24.718;2023-02-23T04:50:38;99669.22;;;6.99;100.00
11830;BME280;5972;42.134;24.718;2023-02-23T04:53:05;99671.13;;;6.90;100.00
11830;BME280;5972;42.134;24.718;2023-02-23T04:55:32;99674.28;;;7.09;100.00
11830;BME280;5972;42.134;24.718;2023-02-23T04:58:00;99678.75;;;7.22;100.00
11830;BME280;5972;42.134;24.718;2023-02-23T05:00:28;99683.00;;;7.32;100.00
11830;BME280;5972;42.134;24.718;2023-02-23T05:02:56;99681.91;;;7.33;100.00
11830;BME280;5972;42.134;24.718;2023-02-23T05:05:23;99680.63;;;7.39;100.00
11830;BME280;5972;42.134;24.718;2023-02-23T05:07:51;99680.78;;;7.42;100.00
11830;BME280;5972;42.134;24.718;2023-02-23T05:10:19;99683.78;;;7.49;100.00
11830;BME280;5972;42.134;24.718;2023-02-23T05:12:46;99689.31;;;7.53;100.00
11830;BME280;5972;42.134;24.718;2023-02-23T05:15:13;99687.88;;;7.56;100.00
11830;BME280;5972;42.134;24.718;2023-02-23T05:17:40;99695.81;;;7.61;100.00
11830;BME280;5972;42.134;24.718;2023-02-23T05:20:08;99699.44;;;7.65;100.00
11830;BME280;5972;42.134;24.718;2023-02-23T05:22:35;99701.31;;;7.73;100.00
11830;BME280;5972;42.134;24.718;2023-02-23T05:25:04;99698.59;;;7.81;100.00
11830;BME280;5972;42.134;24.718;2023-02-23T05:27:31;99702.09;;;7.90;100.00
11830;BME280;5972;42.134;24.718;2023-02-23T05:29:58;99713.31;;;7.92;100.00
11830;BME280;5972;42.134;24.718;2023-02-23T05:32:26;99719.81;;;7.91;100.00
11830;BME280;5972;42.134;24.718;2023-02-23T05:34:52;99716.66;;;7.89;100.00
11830;BME280;5972;42.134;24.718;2023-02-23T05:37:19;99719.03;;;7.91;100.00
11830;BME280;5972;42.134;24.718;2023-02-23T05:39:46;99726.00;;;7.92;100.00
11830;BME280;5972;42.134;24.718;2023-02-23T05:42:15;99730.13;;;7.89;100.00
11830;BME280;5972;42.134;24.718;2023-02-23T05:44:41;99726.28;;;7.99;100.00
11830;BME280;5972;42.134;24.718;2023-02-23T05:47:08;99735.44;;;8.15;100.00
11830;BME280;5972;42.134;24.718;2023-02-23T05:49:36;99733.53;;;8.16;100.00
11830;BME280;5972;42.134;24.718;2023-02-23T05:52:03;99741.31;;;8.17;100.00
11830;BME280;5972;42.134;24.718;2023-02-23T05:54:30;99743.50;;;8.32;100.00
11830;BME280;5972;42.134;24.718;2023-02-23T05:56:57;99749.31;;;8.52;100.00
11830;BME280;5972;42.134;24.718;2023-02-23T05:59:25;99752.97;;;8.76;100.00
11830;BME280;5972;42.134;24.718;2023-02-23T06:01:52;99750.75;;;9.08;100.00
11830;BME280;5972;42.134;24.718;2023-02-23T06:04:18;99756.81;;;9.46;100.00
11830;BME280;5972;42.134;24.718;2023-02-23T06:06:46;99751.97;;;9.73;100.00
11830;BME280;5972;42.134;24.718;2023-02-23T06:09:13;99762.34;;;10.16;100.00
11830;BME280;5972;42.134;24.718;2023-02-23T06:11:40;99770.06;;;10.38;100.00
11830;BME280;5972;42.134;24.718;2023-02-23T06:14:07;99773.41;;;10.80;100.00
11830;BME280;5972;42.134;24.718;2023-02-23T06:16:35;99761.16;;;11.62;95.59
11830;BME280;5972;42.134;24.718;2023-02-23T06:19:02;99760.41;;;12.65;87.95
11830;BME280;5972;42.134;24.718;2023-02-23T06:21:29;99762.66;;;13.29;76.60
11830;BME280;5972;42.134;24.718;2023-02-23T06:23:56;99762.09;;;13.97;69.12
11830;BME280;5972;42.134;24.718;2023-02-23T06:26:25;99761.09;;;14.73;63.15
11830;BME280;5972;42.134;24.718;2023-02-23T06:28:52;99767.88;;;15.09;58.56
11830;BME280;5972;42.134;24.718;2023-02-23T06:31:18;99764.16;;;15.80;56.06
11830;BME280;5972;42.134;24.718;2023-02-23T06:33:47;99766.44;;;16.52;52.94
11830;BME280;5972;42.134;24.718;2023-02-23T06:36:14;99774.13;;;16.84;50.78
11830;BME280;5972;42.134;24.718;2023-02-23T06:38:40;99766.75;;;17.50;47.62
11830;BME280;5972;42.134;24.718;2023-02-23T06:41:10;99770.06;;;17.98;46.09
11830;BME280;5972;42.134;24.718;2023-02-23T06:43:37;99777.59;;;18.36;44.97
11830;BME280;5972;42.134;24.718;2023-02-23T06:46:04;99770.97;;;18.58;43.34
11830;BME280;5972;42.134;24.718;2023-02-23T06:48:31;99772.16;;;18.68;42.65
11830;BME280;5972;42.134;24.718;2023-02-23T06:50:59;99784.63;;;18.51;43.38
11830;BME280;5972;42.134;24.718;2023-02-23T06:53:26;99776.03;;;17.31;45.04
11830;BME280;5972;42.134;24.718;2023-02-23T06:55:53;99781.44;;;18.17;44.67
11830;BME280;5972;42.134;24.718;2023-02-23T06:58:20;99774.44;;;18.31;43.76
11830;BME280;5972;42.134;24.718;2023-02-23T07:00:46;99778.34;;;19.25;41.75
11830;BME280;5972;42.134;24.718;2023-02-23T07:03:13;99789.69;;;19.45;40.77
11830;BME280;5972;42.134;24.718;2023-02-23T07:05:40;99786.50;;;19.57;40.45
11830;BME280;5972;42.134;24.718;2023-02-23T07:08:09;99781.94;;;18.87;42.18
11830;BME280;5972;42.134;24.718;2023-02-23T07:10:36;99785.41;;;19.19;41.68
11830;BME280;5972;42.134;24.718;2023-02-23T07:13:03;99783.06;;;18.33;42.44
11830;BME280;5972;42.134;24.718;2023-02-23T07:15:29;99786.22;;;19.09;41.72
11830;BME280;5972;42.134;24.718;2023-02-23T07:17:56;99785.88;;;18.82;41.81
11830;BME280;5972;42.134;24.718;2023-02-23T07:20:23;99787.41;;;18.69;42.37
11830;BME280;5972;42.134;24.718;2023-02-23T07:22:50;99788.59;;;18.75;41.99
11830;BME280;5972;42.134;24.718;2023-02-23T07:25:18;99782.34;;;18.60;42.43
11830;BME280;5972;42.134;24.718;2023-02-23T07:27:45;99768.03;;;17.70;44.07
11830;BME280;5972;42.134;24.718;2023-02-23T07:30:13;99764.09;;;17.67;44.84
11830;BME280;5972;42.134;24.718;2023-02-23T07:32:40;99785.22;;;17.70;45.11
11830;BME280;5972;42.134;24.718;2023-02-23T07:35:08;99785.34;;;18.13;44.18
11830;BME280;5972;42.134;24.718;2023-02-23T07:37:35;99765.44;;;17.29;45.40
11830;BME280;5972;42.134;24.718;2023-02-23T07:40:02;99790.69;;;16.57;47.67
11830;BME280;5972;42.134;24.718;2023-02-23T07:42:30;99785.50;;;16.05;50.06
11830;BME280;5972;42.134;24.718;2023-02-23T07:44:57;99789.84;;;16.09;50.89
11830;BME280;5972;42.134;24.718;2023-02-23T07:47:23;99785.53;;;16.08;51.40
11830;BME280;5972;42.134;24.718;2023-02-23T07:49:56;99783.25;;;16.14;51.37
11830;BME280;5972;42.134;24.718;2023-02-23T07:52:23;99773.13;;;16.58;49.79
11830;BME280;5972;42.134;24.718;2023-02-23T07:54:50;99777.94;;;16.72;48.98
11830;BME280;5972;42.134;24.718;2023-02-23T07:57:17;99759.94;;;16.23;49.85
11830;BME280;5972;42.134;24.718;2023-02-23T07:59:46;99777.16;;;15.61;52.77
11830;BME280;5972;42.134;24.718;2023-02-23T08:02:13;99788.94;;;15.12;56.20
11830;BME280;5972;42.134;24.718;2023-02-23T08:04:40;99777.47;;;15.26;56.45
11830;BME280;5972;42.134;24.718;2023-02-23T08:07:08;99784.69;;;15.41;56.05
11830;BME280;5972;42.134;24.718;2023-02-23T08:09:35;99783.63;;;15.79;54.97
11830;BME280;5972;42.134;24.718;2023-02-23T08:12:02;99784.97;;;15.92;54.94
11830;BME280;5972;42.134;24.718;2023-02-23T08:14:28;99777.69;;;15.44;57.16
11830;BME280;5972;42.134;24.718;2023-02-23T08:16:57;99741.97;;;16.22;53.40
11830;BME280;5972;42.134;24.718;2023-02-23T08:19:26;99776.28;;;17.12;50.31
11830;BME280;5972;42.134;24.718;2023-02-23T08:21:53;99780.16;;;17.03;50.05
11830;BME280;5972;42.134;24.718;2023-02-23T08:24:21;99777.28;;;16.86;50.50
11830;BME280;5972;42.134;24.718;2023-02-23T08:26:48;99779.13;;;17.26;50.08
11830;BME280;5972;42.134;24.718;2023-02-23T08:29:15;99771.34;;;17.31;49.12
11830;BME280;5972;42.134;24.718;2023-02-23T08:31:42;99780.16;;;17.07;49.93
11830;BME280;5972;42.134;24.718;2023-02-23T08:34:10;99785.91;;;17.53;49.30
11830;BME280;5972;42.134;24.718;2023-02-23T08:36:37;99786.31;;;17.55;48.69
11830;BME280;5972;42.134;24.718;2023-02-23T08:39:04;99772.50;;;17.30;49.12
11830;BME280;5972;42.134;24.718;2023-02-23T08:41:32;99772.13;;;17.35;48.97
11830;BME280;5972;42.134;24.718;2023-02-23T08:43:59;99780.88;;;16.97;50.65
11830;BME280;5972;42.134;24.718;2023-02-23T08:46:25;99779.50;;;16.70;51.38
11830;BME280;5972;42.134;24.718;2023-02-23T08:48:52;99780.16;;;17.03;51.24
11830;BME280;5972;42.134;24.718;2023-02-23T08:51:22;99780.94;;;17.08;50.68
11830;BME280;5972;42.134;24.718;2023-02-23T08:53:49;99774.84;;;17.32;50.13
11830;BME280;5972;42.134;24.718;2023-02-23T08:56:16;99783.31;;;17.13;50.40
11830;BME280;5972;42.134;24.718;2023-02-23T08:58:43;99758.66;;;17.05;50.65
11830;BME280;5972;42.134;24.718;2023-02-23T09:01:16;99761.31;;;16.91;50.53
11830;BME280;5972;42.134;24.718;2023-02-23T09:03:43;99779.19;;;17.36;50.66
11830;BME280;5972;42.134;24.718;2023-02-23T09:06:12;99781.22;;;17.54;49.09
11830;BME280;5972;42.134;24.718;2023-02-23T09:08:41;99787.34;;;17.29;49.70
11830;BME280;5972;42.134;24.718;2023-02-23T09:11:08;99790.50;;;16.77;51.33
11830;BME280;5972;42.134;24.718;2023-02-23T09:13:35;99779.72;;;17.01;51.19
11830;BME280;5972;42.134;24.718;2023-02-23T09:16:01;99777.91;;;17.16;50.43
11830;BME280;5972;42.134;24.718;2023-02-23T09:18:29;99778.94;;;16.53;51.87
11830;BME280;5972;42.134;24.718;2023-02-23T09:20:57;99776.69;;;16.59;52.17
11830;BME280;5972;42.134;24.718;2023-02-23T09:23:26;99780.47;;;16.95;51.66
11830;BME280;5972;42.134;24.718;2023-02-23T09:25:55;99775.69;;;17.43;49.44
11830;BME280;5972;42.134;24.718;2023-02-23T09:28:22;99776.91;;;17.49;49.57
11830;BME280;5972;42.134;24.718;2023-02-23T09:30:48;99772.56;;;17.44;49.19
11830;BME280;5972;42.134;24.718;2023-02-23T09:33:15;99775.59;;;17.22;50.18
11830;BME280;5972;42.134;24.718;2023-02-23T09:35:42;99764.66;;;17.29;49.50
11830;BME280;5972;42.134;24.718;2023-02-23T09:38:09;99779.72;;;17.60;49.19
11830;BME280;5972;42.134;24.718;2023-02-23T09:40:43;99765.78;;;18.07;48.13
11830;BME280;5972;42.134;24.718;2023-02-23T09:43:14;99770.09;;;18.08;47.46
11830;BME280;5972;42.134;24.718;2023-02-23T09:45:46;99771.59;;;17.84;48.23
11830;BME280;5972;42.134;24.718;2023-02-23T09:48:17;99759.44;;;17.78;47.64
11830;BME280;5972;42.134;24.718;2023-02-23T09:50:47;99765.75;;;17.93;48.05
11830;BME280;5972;42.134;24.718;2023-02-23T09:53:25;99763.03;;;17.93;47.75
11830;BME280;5972;42.134;24.718;2023-02-23T09:55:55;99765.59;;;17.58;48.06
11830;BME280;5972;42.134;24.718;2023-02-23T09:58:25;99767.44;;;17.39;48.73
11830;BME280;5972;42.134;24.718;2023-02-23T10:01:10;99759.50;;;17.17;50.21
11830;BME280;5972;42.134;24.718;2023-02-23T10:03:49;99751.97;;;16.96;50.80
11830;BME280;5972;42.134;24.718;2023-02-23T10:06:18;99751.44;;;17.38;50.06
11830;BME280;5972;42.134;24.718;2023-02-23T10:08:55;99755.44;;;17.58;49.62
11830;BME280;5972;42.134;24.718;2023-02-23T10:11:30;99756.34;;;17.91;47.87
11830;BME280;5972;42.134;24.718;2023-02-23T10:14:09;99746.22;;;17.98;47.63
11830;BME280;5972;42.134;24.718;2023-02-23T10:16:45;99737.53;;;17.78;47.75
11830;BME280;5972;42.134;24.718;2023-02-23T10:19:21;99734.53;;;18.37;46.40
11830;BME280;5972;42.134;24.718;2023-02-23T10:21:55;99745.47;;;18.05;47.11
11830;BME280;5972;42.134;24.718;2023-02-23T10:24:27;99736.41;;;17.86;47.47
11830;BME280;5972;42.134;24.718;2023-02-23T10:26:58;99734.72;;;17.57;48.42
11830;BME280;5972;42.134;24.718;2023-02-23T10:29:30;99731.69;;;17.83;48.06
11830;BME280;5972;42.134;24.718;2023-02-23T10:32:00;99716.81;;;17.74;48.23
11830;BME280;5972;42.134;24.718;2023-02-23T10:34:29;99713.75;;;18.07;48.04
11830;BME280;5972;42.134;24.718;2023-02-23T10:36:58;99717.69;;;18.35;47.26
11830;BME280;5972;42.134;24.718;2023-02-23T10:39:27;99720.44;;;18.35;46.73
11830;BME280;5972;42.134;24.718;2023-02-23T10:41:55;99706.72;;;18.17;47.30
11830;BME280;5972;42.134;24.718;2023-02-23T10:44:25;99705.56;;;18.11;47.24
11830;BME280;5972;42.134;24.718;2023-02-23T10:46:57;99711.66;;;17.55;48.44
11830;BME280;5972;42.134;24.718;2023-02-23T10:49:30;99700.56;;;17.23;49.73
11830;BME280;5972;42.134;24.718;2023-02-23T10:52:00;99703.69;;;17.21;50.04
11830;BME280;5972;42.134;24.718;2023-02-23T10:54:37;99694.00;;;17.45;49.45
11830;BME280;5972;42.134;24.718;2023-02-23T10:57:10;99706.38;;;17.14;49.88
11830;BME280;5972;42.134;24.718;2023-02-23T10:59:40;99707.72;;;17.52;49.51
11830;BME280;5972;42.134;24.718;2023-02-23T11:02:23;99688.34;;;18.32;47.34
11830;BME280;5972;42.134;24.718;2023-02-23T11:04:53;99696.19;;;18.76;46.11
11830;BME280;5972;42.134;24.718;2023-02-23T11:07:22;99693.44;;;18.33;46.34
11830;BME280;5972;42.134;24.718;2023-02-23T11:09:50;99681.25;;;17.77;48.25
11830;BME280;5972;42.134;24.718;2023-02-23T11:12:19;99703.59;;;17.03;51.18
11830;BME280;5972;42.134;24.718;2023-02-23T11:14:51;99677.63;;;16.73;53.06
11830;BME280;5972;42.134;24.718;2023-02-23T11:17:28;99690.84;;;16.63;54.22
11830;BME280;5972;42.134;24.718;2023-02-23T11:20:00;99683.84;;;16.66;53.99
11830;BME280;5972;42.134;24.718;2023-02-23T11:22:31;99677.38;;;16.41;55.44
11830;BME280;5972;42.134;24.718;2023-02-23T11:25:00;99688.94;;;16.23;56.06
11830;BME280;5972;42.134;24.718;2023-02-23T11:27:28;99682.75;;;16.27;57.07
11830;BME280;5972;42.134;24.718;2023-02-23T11:29:57;99664.63;;;16.08;57.66
11830;BME280;5972;42.134;24.718;2023-02-23T11:32:30;99685.59;;;15.97;59.06
11830;BME280;5972;42.134;24.718;2023-02-23T11:35:13;99666.06;;;15.95;61.43
11830;BME280;5972;42.134;24.718;2023-02-23T11:37:40;99673.34;;;16.20;58.26
11830;BME280;5972;42.134;24.718;2023-02-23T11:40:18;99678.44;;;16.26;57.85
11830;BME280;5972;42.134;24.718;2023-02-23T11:42:51;99673.47;;;16.38;57.88
11830;BME280;5972;42.134;24.718;2023-02-23T11:45:19;99662.22;;;16.50;56.82
11830;BME280;5972;42.134;24.718;2023-02-23T11:47:49;99663.56;;;16.16;59.25
11830;BME280;5972;42.134;24.718;2023-02-23T11:50:22;99675.31;;;15.83;62.25
11830;BME280;5972;42.134;24.718;2023-02-23T11:52:55;99662.75;;;15.71;64.02
11830;BME280;5972;42.134;24.718;2023-02-23T11:55:23;99655.81;;;15.81;65.08
11830;BME280;5972;42.134;24.718;2023-02-23T11:57:51;99639.97;;;15.57;66.06
11830;BME280;5972;42.134;24.718;2023-02-23T12:00:24;99657.00;;;15.84;65.07
11830;BME280;5972;42.134;24.718;2023-02-23T12:02:56;99669.47;;;15.81;65.27
11830;BME280;5972;42.134;24.718;2023-02-23T12:05:25;99660.31;;;15.66;66.91
11830;BME280;5972;42.134;24.718;2023-02-23T12:07:57;99662.56;;;15.54;67.95
11830;BME280;5972;42.134;24.718;2023-02-23T12:10:27;99623.34;;;15.35;69.79
11830;BME280;5972;42.134;24.718;2023-02-23T12:13:02;99662.84;;;15.49;71.93
11830;BME280;5972;42.134;24.718;2023-02-23T12:15:39;99672.47;;;15.39;72.71
11830;BME280;5972;42.134;24.718;2023-02-23T12:18:16;99692.72;;;15.08;73.30
11830;BME280;5972;42.134;24.718;2023-02-23T12:20:46;99670.50;;;15.06;74.42
11830;BME280;5972;42.134;24.718;2023-02-23T12:23:17;99670.25;;;15.15;73.76
11830;BME280;5972;42.134;24.718;2023-02-23T12:25:47;99683.66;;;15.01;75.98
11830;BME280;5972;42.134;24.718;2023-02-23T12:28:21;99653.88;;;14.85;78.15
11830;BME280;5972;42.134;24.718;2023-02-23T12:30:54;99678.84;;;14.90;78.80
11830;BME280;5972;42.134;24.718;2023-02-23T12:33:27;99682.47;;;14.98;78.33
11830;BME280;5972;42.134;24.718;2023-02-23T12:36:01;99664.03;;;14.88;81.15
11830;BME280;5972;42.134;24.718;2023-02-23T12:38:36;99681.88;;;14.82;83.67
11830;BME280;5972;42.134;24.718;2023-02-23T12:41:10;99691.91;;;14.78;87.55
11830;BME280;5972;42.134;24.718;2023-02-23T12:43:43;99687.53;;;14.70;88.72
11830;BME280;5972;42.134;24.718;2023-02-23T12:46:17;99692.09;;;14.66;89.57
11830;BME280;5972;42.134;24.718;2023-02-23T12:48:54;99697.94;;;14.64;90.50
11830;BME280;5972;42.134;24.718;2023-02-23T12:51:27;99680.09;;;14.44;93.60
11830;BME280;5972;42.134;24.718;2023-02-23T12:53:56;99698.09;;;14.75;92.70
11830;BME280;5972;42.134;24.718;2023-02-23T12:56:36;99695.38;;;14.75;92.49
11830;BME280;5972;42.134;24.718;2023-02-23T12:59:19;99701.53;;;14.72;93.14
11830;BME280;5972;42.134;24.718;2023-02-23T13:01:52;99698.78;;;14.68;94.89
11830;BME280;5972;42.134;24.718;2023-02-23T13:04:31;99699.06;;;14.60;96.09
11830;BME280;5972;42.134;24.718;2023-02-23T13:07:11;99701.69;;;14.56;97.54
11830;BME280;5972;42.134;24.718;2023-02-23T13:09:47;99703.75;;;14.63;97.67
11830;BME280;5972;42.134;24.718;2023-02-23T13:12:30;99700.97;;;14.59;97.69
11830;BME280;5972;42.134;24.718;2023-02-23T13:15:09;99681.06;;;14.55;97.90
11830;BME280;5972;42.134;24.718;2023-02-23T13:17:47;99709.75;;;14.49;100.00
11830;BME280;5972;42.134;24.718;2023-02-23T13:20:23;99685.19;;;14.23;100.00
11830;BME280;5972;42.134;24.718;2023-02-23T13:22:56;99716.25;;;14.41;100.00
11830;BME280;5972;42.134;24.718;2023-02-23T13:25:33;99693.13;;;14.08;100.00
11830;BME280;5972;42.134;24.718;2023-02-23T13:28:03;99702.28;;;14.00;100.00
11830;BME280;5972;42.134;24.718;2023-02-23T13:30:32;99707.59;;;13.93;100.00